sensor_id;sensor_type;location;lat;lon;timestamp;P1;durP1;ratioP1;P2;durP2;ratioP2
3881;SDS011;1956;53.482;10.238;2022-12-07T00:03:27;36.23;;;21.03;;
3881;SDS011;1956;53.482;10.238;2022-12-07T00:08:27;38.33;;;19.70;;
3881;SDS011;1956;53.482;10.238;2022-12-07T00:13:28;32.83;;;18.90;;
3881;SDS011;1956;53.482;10.238;2022-12-07T00:18:28;33.87;;;18.27;;
3881;SDS011;1956;53.482;10.238;2022-12-07T00:23:28;36.57;;;19.63;;
3881;SDS011;1956;53.482;10.238;2022-12-07T00:28:29;35.60;;;18.83;;
3881;SDS011;1956;53.482;10.238;2022-12-07T00:33:29;38.00;;;17.97;;
3881;SDS011;1956;53.482;10.238;2022-12-07T00:38:31;42.30;;;21.80;;
3881;SDS011;1956;53.482;10.238;2022-12-07T00:43:32;36.87;;;19.10;;
3881;SDS011;1956;53.482;10.238;2022-12-07T00:48:32;37.07;;;19.27;;
3881;SDS011;1956;53.482;10.238;2022-12-07T00:53:36;37.70;;;19.17;;
3881;SDS011;1956;53.482;10.238;2022-12-07T00:58:36;33.50;;;18.53;;
3881;SDS011;1956;53.482;10.238;2022-12-07T01:03:37;40.73;;;20.07;;
3881;SDS011;1956;53.482;10.238;2022-12-07T01:08:38;39.73;;;18.50;;
3881;SDS011;1956;53.482;10.238;2022-12-07T01:13:39;33.50;;;17.80;;
3881;SDS011;1956;53.482;10.238;2022-12-07T01:18:40;32.13;;;17.93;;
3881;SDS011;1956;53.482;10.238;2022-12-07T01:23:41;32.30;;;17.40;;
3881;SDS011;1956;53.482;10.238;2022-12-07T01:28:41;28.00;;;16.30;;
3881;SDS011;1956;53.482;10.238;2022-12-07T01:33:43;27.83;;;16.50;;
3881;SDS011;1956;53.482;10.238;2022-12-07T01:38:46;28.90;;;14.73;;
3881;SDS011;1956;53.482;10.238;2022-12-07T01:49:35;28.73;;;13.97;;
3881;SDS011;1956;53.482;10.238;2022-12-07T01:54:38;24.20;;;12.73;;
3881;SDS011;1956;53.482;10.238;2022-12-07T01:59:38;24.73;;;12.40;;
3881;SDS011;1956;53.482;10.238;2022-12-07T02:04:39;24.33;;;13.37;;
3881;SDS011;1956;53.482;10.238;2022-12-07T02:09:39;25.20;;;13.00;;
3881;SDS011;1956;53.482;10.238;2022-12-07T02:14:40;23.90;;;11.73;;
3881;SDS011;1956;53.482;10.238;2022-12-07T02:20:00;21.47;;;11.53;;
3881;SDS011;1956;53.482;10.238;2022-12-07T02:30:40;24.53;;;12.27;;
3881;SDS011;1956;53.482;10.238;2022-12-07T02:35:47;23.23;;;10.90;;
3881;SDS011;1956;53.482;10.238;2022-12-07T02:41:12;13.60;;;8.60;;
3881;SDS011;1956;53.482;10.238;2022-12-07T02:46:22;30.10;;;9.97;;
3881;SDS011;1956;53.482;10.238;2022-12-07T02:51:25;26.23;;;11.43;;
3881;SDS011;1956;53.482;10.238;2022-12-07T02:56:40;21.40;;;10.17;;
3881;SDS011;1956;53.482;10.238;2022-12-07T03:02:42;24.33;;;9.30;;
3881;SDS011;1956;53.482;10.238;2022-12-07T03:13:41;16.30;;;8.13;;
3881;SDS011;1956;53.482;10.238;2022-12-07T03:18:51;16.10;;;6.97;;
3881;SDS011;1956;53.482;10.238;2022-12-07T03:23:54;17.80;;;7.93;;
3881;SDS011;1956;53.482;10.238;2022-12-07T03:28:57;14.57;;;6.80;;
3881;SDS011;1956;53.482;10.238;2022-12-07T03:34:09;13.33;;;7.47;;
3881;SDS011;1956;53.482;10.238;2022-12-07T03:39:34;19.63;;;7.10;;
3881;SDS011;1956;53.482;10.238;2022-12-07T03:44:36;16.30;;;6.53;;
3881;SDS011;1956;53.482;10.238;2022-12-07T03:49:42;9.90;;;6.13;;
3881;SDS011;1956;53.482;10.238;2022-12-07T03:54:46;14.30;;;5.93;;
3881;SDS011;1956;53.482;10.238;2022-12-07T03:59:50;13.00;;;5.97;;
3881;SDS011;1956;53.482;10.238;2022-12-07T04:04:52;14.33;;;5.00;;
3881;SDS011;1956;53.482;10.238;2022-12-07T04:09:52;9.03;;;4.40;;
3881;SDS011;1956;53.482;10.238;2022-12-07T04:14:54;12.23;;;4.17;;
3881;SDS011;1956;53.482;10.238;2022-12-07T04:19:55;5.07;;;2.97;;
3881;SDS011;1956;53.482;10.238;2022-12-07T04:24:55;3.73;;;3.17;;
3881;SDS011;1956;53.482;10.238;2022-12-07T04:29:55;4.40;;;3.13;;
3881;SDS011;1956;53.482;10.238;2022-12-07T04:34:56;4.33;;;3.90;;
3881;SDS011;1956;53.482;10.238;2022-12-07T04:39:56;7.03;;;3.00;;
3881;SDS011;1956;53.482;10.238;2022-12-07T04:44:56;4.73;;;2.83;;
3881;SDS011;1956;53.482;10.238;2022-12-07T04:49:57;8.57;;;3.10;;
3881;SDS011;1956;53.482;10.238;2022-12-07T04:54:57;11.30;;;4.00;;
3881;SDS011;1956;53.482;10.238;2022-12-07T04:59:57;3.57;;;3.03;;
3881;SDS011;1956;53.482;10.238;2022-12-07T05:04:58;10.80;;;3.13;;
3881;SDS011;1956;53.482;10.238;2022-12-07T05:09:58;15.63;;;3.33;;
3881;SDS011;1956;53.482;10.238;2022-12-07T05:14:58;12.85;;;2.88;;
3881;SDS011;1956;53.482;10.238;2022-12-07T05:19:59;7.13;;;3.50;;
3881;SDS011;1956;53.482;10.238;2022-12-07T05:24:59;4.70;;;3.70;;
3881;SDS011;1956;53.482;10.238;2022-12-07T05:29:59;3.73;;;3.10;;
3881;SDS011;1956;53.482;10.238;2022-12-07T05:35:00;6.50;;;3.47;;
3881;SDS011;1956;53.482;10.238;2022-12-07T05:40:00;9.33;;;3.57;;
3881;SDS011;1956;53.482;10.238;2022-12-07T05:45:00;5.63;;;3.57;;
3881;SDS011;1956;53.482;10.238;2022-12-07T05:50:01;7.23;;;4.00;;
3881;SDS011;1956;53.482;10.238;2022-12-07T05:55:01;5.13;;;3.57;;
3881;SDS011;1956;53.482;10.238;2022-12-07T06:00:02;5.77;;;4.30;;
3881;SDS011;1956;53.482;10.238;2022-12-07T06:05:04;9.70;;;4.57;;
3881;SDS011;1956;53.482;10.238;2022-12-07T06:10:05;8.90;;;3.27;;
3881;SDS011;1956;53.482;10.238;2022-12-07T06:15:06;6.03;;;3.70;;
3881;SDS011;1956;53.482;10.238;2022-12-07T06:20:07;4.10;;;3.50;;
3881;SDS011;1956;53.482;10.238;2022-12-07T06:25:08;7.43;;;3.93;;
3881;SDS011;1956;53.482;10.238;2022-12-07T06:30:09;6.87;;;3.80;;
3881;SDS011;1956;53.482;10.238;2022-12-07T06:35:10;5.60;;;3.70;;
3881;SDS011;1956;53.482;10.238;2022-12-07T06:40:10;6.00;;;4.30;;
3881;SDS011;1956;53.482;10.238;2022-12-07T06:45:11;13.13;;;4.53;;
3881;SDS011;1956;53.482;10.238;2022-12-07T06:50:11;8.98;;;4.07;;
3881;SDS011;1956;53.482;10.238;2022-12-07T06:55:12;5.80;;;3.90;;
3881;SDS011;1956;53.482;10.238;2022-12-07T07:00:12;12.00;;;3.90;;
3881;SDS011;1956;53.482;10.238;2022-12-07T07:05:13;7.13;;;4.03;;
3881;SDS011;1956;53.482;10.238;2022-12-07T07:10:14;8.83;;;3.77;;
3881;SDS011;1956;53.482;10.238;2022-12-07T07:15:14;7.90;;;4.47;;
3881;SDS011;1956;53.482;10.238;2022-12-07T07:20:14;6.53;;;4.20;;
3881;SDS011;1956;53.482;10.238;2022-12-07T07:25:15;8.27;;;4.10;;
3881;SDS011;1956;53.482;10.238;2022-12-07T07:30:15;9.17;;;3.77;;
3881;SDS011;1956;53.482;10.238;2022-12-07T07:35:16;5.83;;;4.30;;
3881;SDS011;1956;53.482;10.238;2022-12-07T07:40:17;7.40;;;3.90;;
3881;SDS011;1956;53.482;10.238;2022-12-07T07:45:17;7.63;;;3.40;;
3881;SDS011;1956;53.482;10.238;2022-12-07T07:50:18;9.83;;;3.60;;
3881;SDS011;1956;53.482;10.238;2022-12-07T07:55:19;11.40;;;3.60;;
3881;SDS011;1956;53.482;10.238;2022-12-07T08:00:19;4.93;;;3.40;;
3881;SDS011;1956;53.482;10.238;2022-12-07T08:05:20;12.17;;;2.37;;
3881;SDS011;1956;53.482;10.238;2022-12-07T08:10:20;9.43;;;3.47;;
3881;SDS011;1956;53.482;10.238;2022-12-07T08:15:20;7.63;;;3.00;;
3881;SDS011;1956;53.482;10.238;2022-12-07T08:20:21;7.80;;;2.50;;
3881;SDS011;1956;53.482;10.238;2022-12-07T08:25:21;8.27;;;3.40;;
3881;SDS011;1956;53.482;10.238;2022-12-07T08:30:24;9.23;;;3.93;;
3881;SDS011;1956;53.482;10.238;2022-12-07T08:35:25;12.13;;;5.07;;
3881;SDS011;1956;53.482;10.238;2022-12-07T08:40:26;14.80;;;5.77;;
3881;SDS011;1956;53.482;10.238;2022-12-07T08:45:26;10.07;;;4.13;;
3881;SDS011;1956;53.482;10.238;2022-12-07T08:50:27;12.47;;;2.90;;
3881;SDS011;1956;53.482;10.238;2022-12-07T08:55:28;13.40;;;2.67;;
3881;SDS011;1956;53.482;10.238;2022-12-07T09:00:29;6.60;;;3.10;;
3881;SDS011;1956;53.482;10.238;2022-12-07T09:05:29;3.23;;;2.17;;
3881;SDS011;1956;53.482;10.238;2022-12-07T09:10:29;3.37;;;2.10;;
3881;SDS011;1956;53.482;10.238;2022-12-07T09:15:30;5.53;;;3.17;;
3881;SDS011;1956;53.482;10.238;2022-12-07T09:20:31;11.53;;;3.40;;
3881;SDS011;1956;53.482;10.238;2022-12-07T09:25:31;6.43;;;3.23;;
3881;SDS011;1956;53.482;10.238;2022-12-07T09:30:32;4.47;;;2.50;;
3881;SDS011;1956;53.482;10.238;2022-12-07T09:35:32;15.07;;;2.93;;
3881;SDS011;1956;53.482;10.238;2022-12-07T09:40:32;8.83;;;2.20;;
3881;SDS011;1956;53.482;10.238;2022-12-07T09:45:34;6.53;;;2.17;;
3881;SDS011;1956;53.482;10.238;2022-12-07T09:50:35;12.57;;;2.73;;
3881;SDS011;1956;53.482;10.238;2022-12-07T09:55:36;7.57;;;2.27;;
3881;SDS011;1956;53.482;10.238;2022-12-07T10:00:37;6.90;;;2.67;;
3881;SDS011;1956;53.482;10.238;2022-12-07T10:05:38;11.63;;;2.20;;
3881;SDS011;1956;53.482;10.238;2022-12-07T10:10:42;6.00;;;2.13;;
3881;SDS011;1956;53.482;10.238;2022-12-07T10:15:46;15.50;;;2.43;;
3881;SDS011;1956;53.482;10.238;2022-12-07T10:21:12;4.37;;;1.77;;
3881;SDS011;1956;53.482;10.238;2022-12-07T10:26:35;5.33;;;2.33;;
3881;SDS011;1956;53.482;10.238;2022-12-07T10:32:01;9.67;;;2.23;;
3881;SDS011;1956;53.482;10.238;2022-12-07T10:37:21;7.07;;;1.60;;
3881;SDS011;1956;53.482;10.238;2022-12-07T10:42:26;4.40;;;1.43;;
3881;SDS011;1956;53.482;10.238;2022-12-07T10:53:10;1.20;;;1.10;;
3881;SDS011;1956;53.482;10.238;2022-12-07T10:58:44;5.93;;;1.63;;
3881;SDS011;1956;53.482;10.238;2022-12-07T11:04:18;7.47;;;2.47;;
3881;SDS011;1956;53.482;10.238;2022-12-07T11:15:04;5.00;;;1.17;;
3881;SDS011;1956;53.482;10.238;2022-12-07T11:20:15;5.20;;;1.23;;
3881;SDS011;1956;53.482;10.238;2022-12-07T11:25:39;1.43;;;1.13;;
3881;SDS011;1956;53.482;10.238;2022-12-07T11:31:26;4.17;;;1.07;;
3881;SDS011;1956;53.482;10.238;2022-12-07T11:36:37;10.13;;;1.50;;
3881;SDS011;1956;53.482;10.238;2022-12-07T11:41:41;4.30;;;1.07;;
3881;SDS011;1956;53.482;10.238;2022-12-07T11:46:49;4.60;;;0.97;;
3881;SDS011;1956;53.482;10.238;2022-12-07T11:51:52;3.13;;;1.17;;
3881;SDS011;1956;53.482;10.238;2022-12-07T11:56:53;12.00;;;1.50;;
3881;SDS011;1956;53.482;10.238;2022-12-07T12:01:57;3.43;;;1.23;;
3881;SDS011;1956;53.482;10.238;2022-12-07T12:07:07;6.03;;;1.30;;
3881;SDS011;1956;53.482;10.238;2022-12-07T12:12:27;4.93;;;1.50;;
3881;SDS011;1956;53.482;10.238;2022-12-07T12:24:08;8.63;;;1.77;;
3881;SDS011;1956;53.482;10.238;2022-12-07T12:29:32;10.53;;;1.60;;
3881;SDS011;1956;53.482;10.238;2022-12-07T12:36:28;5.20;;;1.10;;
3881;SDS011;1956;53.482;10.238;2022-12-07T12:40:42;4.77;;;1.83;;
3881;SDS011;1956;53.482;10.238;2022-12-07T12:45:43;6.90;;;1.80;;
3881;SDS011;1956;53.482;10.238;2022-12-07T12:50:44;8.33;;;1.50;;
3881;SDS011;1956;53.482;10.238;2022-12-07T13:06:38;8.87;;;1.50;;
3881;SDS011;1956;53.482;10.238;2022-12-07T13:11:41;6.10;;;1.53;;
3881;SDS011;1956;53.482;10.238;2022-12-07T13:16:44;8.23;;;1.73;;
3881;SDS011;1956;53.482;10.238;2022-12-07T13:21:44;5.50;;;1.20;;
3881;SDS011;1956;53.482;10.238;2022-12-07T13:26:45;2.27;;;0.93;;
3881;SDS011;1956;53.482;10.238;2022-12-07T13:31:49;5.90;;;1.63;;
3881;SDS011;1956;53.482;10.238;2022-12-07T13:36:51;3.73;;;1.27;;
3881;SDS011;1956;53.482;10.238;2022-12-07T13:41:52;8.83;;;1.87;;
3881;SDS011;1956;53.482;10.238;2022-12-07T13:47:05;11.60;;;2.20;;
3881;SDS011;1956;53.482;10.238;2022-12-07T13:52:28;1.73;;;1.00;;
3881;SDS011;1956;53.482;10.238;2022-12-07T13:57:30;3.00;;;1.40;;
3881;SDS011;1956;53.482;10.238;2022-12-07T14:02:34;8.97;;;1.47;;
3881;SDS011;1956;53.482;10.238;2022-12-07T14:07:35;8.07;;;1.10;;
3881;SDS011;1956;53.482;10.238;2022-12-07T14:12:49;1.57;;;0.70;;
3881;SDS011;1956;53.482;10.238;2022-12-07T14:17:50;8.77;;;2.37;;
3881;SDS011;1956;53.482;10.238;2022-12-07T14:22:54;6.00;;;1.43;;
3881;SDS011;1956;53.482;10.238;2022-12-07T14:27:59;10.23;;;1.83;;
3881;SDS011;1956;53.482;10.238;2022-12-07T14:33:02;1.17;;;1.00;;
3881;SDS011;1956;53.482;10.238;2022-12-07T14:38:03;8.93;;;1.60;;
3881;SDS011;1956;53.482;10.238;2022-12-07T14:43:10;9.07;;;1.87;;
3881;SDS011;1956;53.482;10.238;2022-12-07T14:48:12;2.70;;;1.20;;
3881;SDS011;1956;53.482;10.238;2022-12-07T14:53:15;3.07;;;1.20;;
3881;SDS011;1956;53.482;10.238;2022-12-07T14:58:17;8.63;;;1.00;;
3881;SDS011;1956;53.482;10.238;2022-12-07T15:03:18;6.30;;;1.00;;
3881;SDS011;1956;53.482;10.238;2022-12-07T15:08:18;2.93;;;1.50;;
3881;SDS011;1956;53.482;10.238;2022-12-07T15:13:19;5.00;;;1.03;;
3881;SDS011;1956;53.482;10.238;2022-12-07T15:18:38;4.17;;;0.70;;
3881;SDS011;1956;53.482;10.238;2022-12-07T15:23:41;5.13;;;0.80;;
3881;SDS011;1956;53.482;10.238;2022-12-07T15:28:41;7.53;;;0.80;;
3881;SDS011;1956;53.482;10.238;2022-12-07T15:33:42;4.00;;;0.90;;
3881;SDS011;1956;53.482;10.238;2022-12-07T15:38:43;1.50;;;1.00;;
3881;SDS011;1956;53.482;10.238;2022-12-07T15:43:43;7.67;;;1.27;;
3881;SDS011;1956;53.482;10.238;2022-12-07T15:49:03;4.00;;;1.17;;
3881;SDS011;1956;53.482;10.238;2022-12-07T15:54:04;3.77;;;1.30;;
3881;SDS011;1956;53.482;10.238;2022-12-07T15:59:04;2.77;;;1.40;;
3881;SDS011;1956;53.482;10.238;2022-12-07T16:04:05;5.40;;;1.33;;
3881;SDS011;1956;53.482;10.238;2022-12-07T16:09:05;5.03;;;1.60;;
3881;SDS011;1956;53.482;10.238;2022-12-07T16:14:06;2.00;;;1.17;;
3881;SDS011;1956;53.482;10.238;2022-12-07T16:19:07;4.43;;;1.37;;
3881;SDS011;1956;53.482;10.238;2022-12-07T16:24:08;9.30;;;1.53;;
3881;SDS011;1956;53.482;10.238;2022-12-07T16:29:13;4.13;;;1.70;;
3881;SDS011;1956;53.482;10.238;2022-12-07T16:34:13;1.63;;;1.23;;
3881;SDS011;1956;53.482;10.238;2022-12-07T16:39:14;1.47;;;1.07;;
3881;SDS011;1956;53.482;10.238;2022-12-07T16:44:14;5.50;;;1.20;;
3881;SDS011;1956;53.482;10.238;2022-12-07T16:49:15;3.27;;;1.60;;
3881;SDS011;1956;53.482;10.238;2022-12-07T16:54:16;3.40;;;1.70;;
3881;SDS011;1956;53.482;10.238;2022-12-07T16:59:16;2.73;;;1.33;;
3881;SDS011;1956;53.482;10.238;2022-12-07T17:04:17;3.40;;;1.73;;
3881;SDS011;1956;53.482;10.238;2022-12-07T17:09:17;3.00;;;1.40;;
3881;SDS011;1956;53.482;10.238;2022-12-07T17:14:17;4.00;;;1.90;;
3881;SDS011;1956;53.482;10.238;2022-12-07T17:19:36;4.77;;;2.20;;
3881;SDS011;1956;53.482;10.238;2022-12-07T17:24:37;4.83;;;1.70;;
3881;SDS011;1956;53.482;10.238;2022-12-07T17:29:37;2.20;;;2.00;;
3881;SDS011;1956;53.482;10.238;2022-12-07T17:34:38;5.77;;;2.13;;
3881;SDS011;1956;53.482;10.238;2022-12-07T17:39:38;12.17;;;2.40;;
3881;SDS011;1956;53.482;10.238;2022-12-07T17:44:39;5.00;;;2.13;;
3881;SDS011;1956;53.482;10.238;2022-12-07T17:49:39;3.43;;;2.10;;
3881;SDS011;1956;53.482;10.238;2022-12-07T17:54:40;5.93;;;2.20;;
3881;SDS011;1956;53.482;10.238;2022-12-07T17:59:40;3.20;;;2.90;;
3881;SDS011;1956;53.482;10.238;2022-12-07T18:04:41;4.07;;;2.97;;
3881;SDS011;1956;53.482;10.238;2022-12-07T18:09:42;5.30;;;2.87;;
3881;SDS011;1956;53.482;10.238;2022-12-07T18:14:42;4.50;;;3.20;;
3881;SDS011;1956;53.482;10.238;2022-12-07T18:19:42;5.70;;;4.43;;
3881;SDS011;1956;53.482;10.238;2022-12-07T18:24:43;11.30;;;4.13;;
3881;SDS011;1956;53.482;10.238;2022-12-07T18:29:43;5.50;;;3.80;;
3881;SDS011;1956;53.482;10.238;2022-12-07T18:34:44;4.80;;;3.37;;
3881;SDS011;1956;53.482;10.238;2022-12-07T18:39:44;7.20;;;3.33;;
3881;SDS011;1956;53.482;10.238;2022-12-07T18:44:45;9.33;;;2.93;;
3881;SDS011;1956;53.482;10.238;2022-12-07T18:49:45;10.07;;;4.30;;
3881;SDS011;1956;53.482;10.238;2022-12-07T18:54:45;14.80;;;7.97;;
3881;SDS011;1956;53.482;10.238;2022-12-07T18:59:46;14.23;;;8.40;;
3881;SDS011;1956;53.482;10.238;2022-12-07T19:04:47;14.10;;;6.50;;
3881;SDS011;1956;53.482;10.238;2022-12-07T19:09:47;12.17;;;6.40;;
3881;SDS011;1956;53.482;10.238;2022-12-07T19:14:48;11.37;;;6.47;;
3881;SDS011;1956;53.482;10.238;2022-12-07T19:19:48;9.50;;;7.20;;
3881;SDS011;1956;53.482;10.238;2022-12-07T19:24:50;16.30;;;6.63;;
3881;SDS011;1956;53.482;10.238;2022-12-07T19:29:51;14.47;;;7.07;;
3881;SDS011;1956;53.482;10.238;2022-12-07T19:34:52;10.40;;;6.60;;
3881;SDS011;1956;53.482;10.238;2022-12-07T19:39:53;17.30;;;6.83;;
3881;SDS011;1956;53.482;10.238;2022-12-07T19:44:54;12.10;;;7.33;;
3881;SDS011;1956;53.482;10.238;2022-12-07T19:49:54;16.57;;;8.40;;
3881;SDS011;1956;53.482;10.238;2022-12-07T19:54:54;13.37;;;8.30;;
3881;SDS011;1956;53.482;10.238;2022-12-07T19:59:55;16.27;;;9.10;;
3881;SDS011;1956;53.482;10.238;2022-12-07T20:04:55;13.80;;;7.40;;
3881;SDS011;1956;53.482;10.238;2022-12-07T20:09:56;15.77;;;8.93;;
3881;SDS011;1956;53.482;10.238;2022-12-07T20:14:56;18.93;;;8.67;;
3881;SDS011;1956;53.482;10.238;2022-12-07T20:19:58;16.57;;;9.20;;
3881;SDS011;1956;53.482;10.238;2022-12-07T20:24:58;20.77;;;9.97;;
3881;SDS011;1956;53.482;10.238;2022-12-07T20:29:58;17.23;;;8.80;;
3881;SDS011;1956;53.482;10.238;2022-12-07T20:34:59;12.63;;;8.33;;
3881;SDS011;1956;53.482;10.238;2022-12-07T20:39:59;14.90;;;8.27;;
3881;SDS011;1956;53.482;10.238;2022-12-07T20:45:00;19.40;;;8.07;;
3881;SDS011;1956;53.482;10.238;2022-12-07T20:50:02;17.60;;;9.00;;
3881;SDS011;1956;53.482;10.238;2022-12-07T20:55:04;14.57;;;7.70;;
3881;SDS011;1956;53.482;10.238;2022-12-07T21:00:05;14.73;;;8.43;;
3881;SDS011;1956;53.482;10.238;2022-12-07T21:05:07;12.13;;;8.00;;
3881;SDS011;1956;53.482;10.238;2022-12-07T21:10:07;19.13;;;9.23;;
3881;SDS011;1956;53.482;10.238;2022-12-07T21:15:08;13.90;;;9.20;;
3881;SDS011;1956;53.482;10.238;2022-12-07T21:20:08;12.70;;;8.13;;
3881;SDS011;1956;53.482;10.238;2022-12-07T21:25:09;14.37;;;9.60;;
3881;SDS011;1956;53.482;10.238;2022-12-07T21:30:10;18.63;;;9.13;;
3881;SDS011;1956;53.482;10.238;2022-12-07T21:35:10;17.00;;;10.80;;
3881;SDS011;1956;53.482;10.238;2022-12-07T21:40:11;20.23;;;12.03;;
3881;SDS011;1956;53.482;10.238;2022-12-07T21:45:12;22.10;;;12.60;;
3881;SDS011;1956;53.482;10.238;2022-12-07T21:50:12;25.33;;;12.50;;
3881;SDS011;1956;53.482;10.238;2022-12-07T21:55:13;20.53;;;11.40;;
3881;SDS011;1956;53.482;10.238;2022-12-07T22:05:14;19.83;;;11.13;;
3881;SDS011;1956;53.482;10.238;2022-12-07T22:10:15;18.17;;;11.70;;
3881;SDS011;1956;53.482;10.238;2022-12-07T22:15:27;16.80;;;10.83;;
3881;SDS011;1956;53.482;10.238;2022-12-07T22:20:27;21.83;;;11.87;;
3881;SDS011;1956;53.482;10.238;2022-12-07T22:25:28;18.53;;;12.03;;
3881;SDS011;1956;53.482;10.238;2022-12-07T22:30:28;25.10;;;11.23;;
3881;SDS011;1956;53.482;10.238;2022-12-07T22:35:28;21.53;;;11.80;;
3881;SDS011;1956;53.482;10.238;2022-12-07T22:40:29;23.83;;;12.60;;
3881;SDS011;1956;53.482;10.238;2022-12-07T22:45:29;20.87;;;13.17;;
3881;SDS011;1956;53.482;10.238;2022-12-07T22:50:29;20.92;;;12.23;;
3881;SDS011;1956;53.482;10.238;2022-12-07T22:55:31;34.00;;;14.07;;
3881;SDS011;1956;53.482;10.238;2022-12-07T23:00:31;22.00;;;12.50;;
3881;SDS011;1956;53.482;10.238;2022-12-07T23:05:32;21.27;;;13.40;;
3881;SDS011;1956;53.482;10.238;2022-12-07T23:10:33;19.90;;;11.87;;
3881;SDS011;1956;53.482;10.238;2022-12-07T23:15:33;21.20;;;13.03;;
3881;SDS011;1956;53.482;10.238;2022-12-07T23:20:34;20.00;;;12.30;;
3881;SDS011;1956;53.482;10.238;2022-12-07T23:25:35;19.67;;;12.10;;
3881;SDS011;1956;53.482;10.238;2022-12-07T23:30:35;23.90;;;13.60;;
3881;SDS011;1956;53.482;10.238;2022-12-07T23:35:35;33.17;;;13.60;;
3881;SDS011;1956;53.482;10.238;2022-12-07T23:40:36;26.87;;;13.77;;
3881;SDS011;1956;53.482;10.238;2022-12-07T23:45:36;23.67;;;13.07;;
3881;SDS011;1956;53.482;10.238;2022-12-07T23:50:36;22.97;;;13.80;;
3881;SDS011;1956;53.482;10.238;2022-12-07T23:55:37;29.93;;;14.33;;
